Time;durP1;ratioP1;P1;durP2;ratioP2;P2;SDS_P1;SDS_P2;PMS_P1;PMS_P2;Temp;Humidity;BMP_temperature;BMP_pressure;BME280_temperature;BME280_humidity;BME280_pressure;Samples;Min_cycle;Max_cycle;Signal;HPM_P1;HPM_P2
2023/02/11 00:00:58;;;;;;;7.97;3.55;;;7.80;85.70;;;;;;5027121;28;20104;-67
2023/02/11 00:03:24;;;;;;;8.00;3.50;;;7.80;85.70;;;;;;5029271;28;20455;-67
2023/02/11 00:06:01;;;;;;;6.65;2.97;;;7.80;85.70;;;;;;5027529;28;20037;-67
2023/02/11 00:08:26;;;;;;;9.35;3.22;;;7.80;85.70;;;;;;5029105;28;20055;-68
2023/02/11 00:10:54;;;;;;;6.70;3.25;;;7.80;85.70;;;;;;5028341;28;20021;-67
2023/02/11 00:13:20;;;;;;;5.18;3.10;;;7.80;85.70;;;;;;5026770;28;20033;-68
2023/02/11 00:15:46;;;;;;;5.75;2.80;;;7.90;85.50;;;;;;5028389;28;20026;-66
2023/02/11 00:18:11;;;;;;;5.55;2.63;;;7.90;85.40;;;;;;5028447;28;20488;-67
2023/02/11 00:20:41;;;;;;;7.70;3.33;;;7.90;85.40;;;;;;5029103;28;20029;-67
2023/02/11 00:23:07;;;;;;;6.63;2.35;;;7.90;85.50;;;;;;5028136;28;20029;-67
2023/02/11 00:25:32;;;;;;;5.95;2.67;;;7.90;85.40;;;;;;5027267;28;20390;-67
2023/02/11 00:27:58;;;;;;;6.47;2.50;;;7.90;85.40;;;;;;5028807;28;20072;-67
2023/02/11 00:30:23;;;;;;;6.93;3.00;;;7.80;85.30;;;;;;5027042;28;20032;-67
2023/02/11 00:32:49;;;;;;;10.15;3.22;;;7.80;85.40;;;;;;5029611;28;20029;-68
2023/02/11 00:35:15;;;;;;;5.40;2.47;;;7.80;85.70;;;;;;5030701;28;20109;-67
2023/02/11 00:37:41;;;;;;;5.50;2.55;;;7.80;85.70;;;;;;5029757;28;20035;-67
2023/02/11 00:40:07;;;;;;;4.15;2.00;;;7.80;85.70;;;;;;5029797;28;20041;-67
2023/02/11 00:42:34;;;;;;;4.20;2.13;;;7.90;85.60;;;;;;5029727;28;20551;-67
2023/02/11 00:45:00;;;;;;;6.93;2.15;;;7.90;85.50;;;;;;5030790;28;20032;-67
2023/02/11 00:47:26;;;;;;;6.43;2.35;;;7.90;85.40;;;;;;5030680;28;20025;-67
2023/02/11 00:49:51;;;;;;;7.15;2.45;;;7.90;85.40;;;;;;5030327;28;20040;-67
2023/02/11 00:52:17;;;;;;;6.25;2.67;;;7.90;85.40;;;;;;5030699;28;20100;-67
2023/02/11 00:54:43;;;;;;;4.97;2.17;;;7.90;85.30;;;;;;5030169;28;20037;-67
2023/02/11 00:57:08;;;;;;;5.47;2.10;;;7.90;85.30;;;;;;5030492;28;20092;-68
2023/02/11 00:59:34;;;;;;;3.97;2.00;;;7.90;85.30;;;;;;5029936;28;20021;-67
2023/02/11 01:01:59;;;;;;;4.15;2.00;;;7.90;85.30;;;;;;5030460;28;20029;-67
2023/02/11 01:04:25;;;;;;;2.85;1.67;;;7.90;85.30;;;;;;5030286;28;20044;-67
2023/02/11 01:06:50;;;;;;;4.53;1.90;;;7.90;85.60;;;;;;5030237;28;20030;-68
2023/02/11 01:09:16;;;;;;;6.43;2.40;;;7.90;85.30;;;;;;5029811;28;20112;-67
2023/02/11 01:11:42;;;;;;;4.45;1.88;;;7.90;85.30;;;;;;5030257;28;20483;-68
2023/02/11 01:14:08;;;;;;;6.40;1.98;;;7.90;85.30;;;;;;5030027;28;20136;-68
2023/02/11 01:16:34;;;;;;;3.50;1.90;;;7.90;85.20;;;;;;5027689;28;20036;-67
2023/02/11 01:18:59;;;;;;;3.92;2.03;;;7.90;85.30;;;;;;5029487;28;20124;-67
2023/02/11 01:21:25;;;;;;;2.78;1.60;;;7.90;85.30;;;;;;5030120;28;20021;-67
2023/02/11 01:23:51;;;;;;;5.50;2.25;;;7.90;85.20;;;;;;5029814;28;20022;-68
2023/02/11 01:26:17;;;;;;;6.22;2.17;;;7.90;85.30;;;;;;5030040;28;20028;-67
2023/02/11 01:28:43;;;;;;;8.85;2.60;;;7.90;85.30;;;;;;5029804;28;20025;-68
2023/02/11 01:31:09;;;;;;;3.45;1.70;;;7.80;85.30;;;;;;5029870;28;20079;-67
2023/02/11 01:33:34;;;;;;;6.95;2.45;;;7.80;85.40;;;;;;5029521;28;20079;-68
2023/02/11 01:36:03;;;;;;;7.43;2.83;;;7.80;85.50;;;;;;5027557;28;20032;-68
2023/02/11 01:38:28;;;;;;;6.82;2.88;;;7.80;85.50;;;;;;5028748;28;20484;-68
2023/02/11 01:40:57;;;;;;;3.95;2.33;;;7.70;85.50;;;;;;5029490;28;20025;-68
2023/02/11 01:43:24;;;;;;;5.13;2.08;;;7.70;85.60;;;;;;5028436;28;20029;-68
2023/02/11 01:46:13;;;;;;;5.78;2.20;;;7.70;85.60;;;;;;5029658;28;20021;-69
2023/02/11 01:48:42;;;;;;;4.50;2.28;;;7.70;85.50;;;;;;5029192;28;20033;-68
2023/02/11 01:51:19;;;;;;;6.28;2.75;;;7.80;85.50;;;;;;5029677;28;20045;-68
2023/02/11 01:59:23;;;;;;;5.57;2.30;;;7.70;85.40;;;;;;5029391;28;20051;-68
2023/02/11 02:01:55;;;;;;;4.80;2.15;;;7.70;85.50;;;;;;5029373;28;20079;-68
2023/02/11 02:04:30;;;;;;;4.13;2.33;;;7.70;85.60;;;;;;5029274;28;20106;-68
2023/02/11 02:07:02;;;;;;;6.13;2.22;;;7.70;85.50;;;;;;5029305;28;20037;-68
2023/02/11 02:09:28;;;;;;;;;;;7.70;85.60;;;;;;5030053;28;20017;-68
2023/02/11 02:11:54;;;;;;;3.60;2.17;;;7.70;85.50;;;;;;5029393;28;19915;-68
2023/02/11 02:14:20;;;;;;;3.95;2.05;;;7.70;85.50;;;;;;5029362;28;20021;-67
2023/02/11 02:16:46;;;;;;;4.55;1.98;;;7.70;85.60;;;;;;5029403;28;20021;-68
2023/02/11 02:19:36;;;;;;;4.82;1.65;;;7.70;85.60;;;;;;5028834;28;20414;-68
2023/02/11 02:22:26;;;;;;;4.38;2.17;;;7.70;85.70;;;;;;5029117;28;20038;-68
2023/02/11 02:25:09;;;;;;;6.47;2.22;;;7.70;85.60;;;;;;5028847;28;20017;-67
2023/02/11 02:27:58;;;;;;;3.13;1.65;;;7.70;85.60;;;;;;5029289;28;20511;-67
2023/02/11 02:30:26;;;;;;;3.83;2.05;;;7.80;85.50;;;;;;5028771;28;20056;-67
2023/02/11 02:33:19;;;;;;;3.72;1.80;;;7.70;85.60;;;;;;5029035;28;20030;-67
2023/02/11 02:35:47;;;;;;;8.40;1.88;;;7.70;85.80;;;;;;5028608;28;20025;-68
2023/02/11 02:38:32;;;;;;;5.30;2.17;;;7.70;85.80;;;;;;5029156;28;20105;-68
2023/02/11 02:41:06;;;;;;;6.15;2.63;;;7.70;85.80;;;;;;5028926;28;20508;-68
2023/02/11 02:43:33;;;;;;;9.27;2.53;;;7.70;85.70;;;;;;5029173;28;20075;-67
2023/02/11 02:46:24;;;;;;;5.95;2.33;;;7.70;85.70;;;;;;5028594;28;20025;-68
2023/02/11 02:48:54;;;;;;;5.03;2.33;;;7.70;85.70;;;;;;5028744;28;20028;-68
2023/02/11 02:51:45;;;;;;;6.05;2.03;;;7.70;85.70;;;;;;5028624;28;20014;-69
2023/02/11 02:54:29;;;;;;;5.53;1.98;;;7.70;85.70;;;;;;5019030;28;20099;-69
2023/02/11 02:57:30;;;;;;;5.63;1.85;;;7.70;85.80;;;;;;5032738;28;20028;-67
2023/02/11 03:00:20;;;;;;;3.13;1.50;;;7.70;86.00;;;;;;5011038;28;20029;-67
2023/02/11 03:03:11;;;;;;;8.60;2.95;;;7.70;85.90;;;;;;5032286;28;20125;-69
2023/02/11 03:05:58;;;;;;;5.80;2.03;;;7.70;86.00;;;;;;5019762;28;20407;-67
2023/02/11 03:08:44;;;;;;;3.03;1.80;;;7.60;86.00;;;;;;5032600;28;20057;-68
2023/02/11 03:11:13;;;;;;;3.15;1.55;;;7.70;86.00;;;;;;5032133;28;20101;-68
2023/02/11 03:13:40;;;;;;;5.10;1.92;;;7.70;85.80;;;;;;5032555;28;20063;-68
2023/02/11 03:16:20;;;;;;;4.55;1.90;;;7.70;86.00;;;;;;5032392;28;20129;-68
2023/02/11 03:18:58;;;;;;;6.32;1.90;;;7.70;86.00;;;;;;5032116;28;20039;-68
2023/02/11 03:21:24;;;;;;;3.47;1.95;;;7.70;86.00;;;;;;5031969;28;20499;-68
2023/02/11 03:23:55;;;;;;;6.85;2.03;;;7.70;86.10;;;;;;5032203;28;20033;-68
2023/02/11 03:26:25;;;;;;;3.97;1.70;;;7.70;86.10;;;;;;5032080;28;20033;-67
2023/02/11 03:29:06;;;;;;;7.75;2.35;;;7.70;86.10;;;;;;5032173;28;20373;-67
2023/02/11 03:31:58;;;;;;;4.10;1.90;;;7.70;86.10;;;;;;5031831;28;20452;-68
2023/02/11 03:34:35;;;;;;;5.95;2.63;;;7.70;86.20;;;;;;5032042;28;20484;-69
2023/02/11 03:37:18;;;;;;;8.52;3.22;;;7.70;86.20;;;;;;5032013;28;20021;-68
2023/02/11 03:40:11;;;;;;;5.50;2.30;;;7.60;86.10;;;;;;5030824;28;20062;-68
2023/02/11 03:43:00;;;;;;;4.35;2.03;;;7.70;86.20;;;;;;5031423;28;20550;-68
2023/02/11 03:45:27;;;;;;;6.40;2.38;;;7.70;86.20;;;;;;5031677;28;20052;-68
2023/02/11 03:48:24;;;;;;;3.35;2.10;;;7.70;86.20;;;;;;5031340;28;20028;-68
2023/02/11 03:50:51;;;;;;;4.15;2.13;;;7.70;86.40;;;;;;5031478;28;20389;-68
2023/02/11 03:53:19;;;;;;;4.68;2.20;;;7.60;86.30;;;;;;5031311;28;20108;-69
2023/02/11 03:55:47;;;;;;;4.13;2.33;;;7.60;86.40;;;;;;5031530;28;20060;-69
2023/02/11 03:58:13;;;;;;;5.72;2.15;;;7.60;86.50;;;;;;5030876;28;20033;-69
2023/02/11 04:00:40;;;;;;;4.88;2.22;;;7.60;86.70;;;;;;5030468;28;20383;-68
2023/02/11 04:03:07;;;;;;;4.43;2.08;;;7.60;86.80;;;;;;5031226;28;20045;-68
2023/02/11 04:05:33;;;;;;;5.80;2.13;;;7.60;86.70;;;;;;5028438;28;20043;-68
2023/02/11 04:07:58;;;;;;;3.38;1.88;;;7.70;86.70;;;;;;5031040;28;20511;-68
2023/02/11 04:10:24;;;;;;;3.13;1.75;;;7.70;86.60;;;;;;5031347;28;20018;-68
2023/02/11 04:12:50;;;;;;;7.28;2.72;;;7.70;86.50;;;;;;5031159;28;20030;-68
2023/02/11 04:15:16;;;;;;;5.85;3.08;;;7.70;86.40;;;;;;5031550;28;20034;-68
2023/02/11 04:17:42;;;;;;;8.30;2.80;;;7.70;86.40;;;;;;5029564;28;20057;-68
2023/02/11 04:20:08;;;;;;;6.65;2.70;;;7.70;86.50;;;;;;5031694;28;20261;-68
2023/02/11 04:22:34;;;;;;;7.38;2.78;;;7.70;86.50;;;;;;5031007;28;20052;-68
2023/02/11 04:24:59;;;;;;;8.65;2.88;;;7.70;86.60;;;;;;5031615;28;20030;-68
2023/02/11 04:27:25;;;;;;;7.43;3.30;;;7.70;86.70;;;;;;5031294;28;20067;-68
2023/02/11 04:29:51;;;;;;;5.95;3.05;;;7.70;86.70;;;;;;5031347;28;20034;-68
2023/02/11 04:32:16;;;;;;;4.30;2.45;;;7.70;86.70;;;;;;5030671;28;20037;-68
2023/02/11 04:34:42;;;;;;;9.57;3.75;;;7.70;86.70;;;;;;5031007;28;20026;-69
2023/02/11 04:37:07;;;;;;;5.50;2.92;;;7.70;86.70;;;;;;5030548;28;20033;-68
2023/02/11 04:39:34;;;;;;;8.23;3.20;;;7.70;86.80;;;;;;5031265;28;20028;-68
2023/02/11 04:41:59;;;;;;;5.60;2.65;;;7.70;86.80;;;;;;5030401;28;20527;-68
2023/02/11 04:44:25;;;;;;;4.40;2.20;;;7.70;86.80;;;;;;5030775;28;20017;-68
2023/02/11 04:46:50;;;;;;;4.30;2.17;;;7.70;86.80;;;;;;5030402;28;20729;-68
2023/02/11 04:49:16;;;;;;;4.18;2.30;;;7.70;86.90;;;;;;5030846;28;20029;-68
2023/02/11 04:51:43;;;;;;;6.30;2.58;;;7.70;87.00;;;;;;5030333;28;20040;-68
2023/02/11 04:54:09;;;;;;;16.17;5.00;;;7.70;86.80;;;;;;5030581;28;20026;-68
2023/02/11 04:56:35;;;;;;;11.48;3.80;;;7.80;87.00;;;;;;5030414;28;20021;-69
2023/02/11 04:59:01;;;;;;;5.63;2.72;;;7.80;87.00;;;;;;5030523;28;20032;-68
2023/02/11 05:01:26;;;;;;;3.75;2.08;;;7.80;86.90;;;;;;5030213;28;20423;-67
2023/02/11 05:03:52;;;;;;;6.88;3.08;;;7.80;86.90;;;;;;5030370;28;20399;-68
2023/02/11 05:06:18;;;;;;;5.72;2.90;;;7.80;86.80;;;;;;5030577;28;20472;-68
2023/02/11 05:08:44;;;;;;;6.13;2.83;;;7.80;86.80;;;;;;5028661;28;20026;-68
2023/02/11 05:11:19;;;;;;;6.22;2.40;;;7.80;86.80;;;;;;5029786;28;20060;-68
2023/02/11 05:13:45;;;;;;;6.75;3.42;;;7.90;86.80;;;;;;5029766;28;20029;-68
2023/02/11 05:16:11;;;;;;;5.22;2.72;;;7.90;86.80;;;;;;5028683;28;20447;-67
2023/02/11 05:18:38;;;;;;;8.68;2.90;;;7.90;86.70;;;;;;5029277;28;20696;-67
2023/02/11 05:21:08;;;;;;;5.93;3.10;;;7.90;86.70;;;;;;5030135;28;20057;-68
2023/02/11 05:23:35;;;;;;;7.07;2.92;;;7.80;86.70;;;;;;5029763;28;20018;-68
2023/02/11 05:26:01;;;;;;;7.53;3.00;;;7.80;86.70;;;;;;5028895;28;20435;-67
2023/02/11 05:28:27;;;;;;;6.80;2.80;;;7.90;86.70;;;;;;5027257;28;20108;-68
2023/02/11 05:30:52;;;;;;;7.65;3.25;;;7.90;86.60;;;;;;5029213;28;20179;-68
2023/02/11 05:33:18;;;;;;;4.82;2.70;;;7.90;86.70;;;;;;5029057;28;20036;-68
2023/02/11 05:35:43;;;;;;;8.60;2.85;;;7.90;86.70;;;;;;5029416;28;20087;-68
2023/02/11 05:38:09;;;;;;;7.72;3.00;;;7.90;86.60;;;;;;5029639;28;20380;-67
2023/02/11 05:40:35;;;;;;;5.60;3.03;;;7.90;86.70;;;;;;5029589;28;20083;-67
2023/02/11 05:43:00;;;;;;;7.22;2.65;;;7.90;86.70;;;;;;5028084;28;20028;-68
2023/02/11 05:45:26;;;;;;;3.50;2.05;;;7.90;86.70;;;;;;5028313;28;20064;-69
2023/02/11 05:47:52;;;;;;;6.47;2.92;;;8.00;86.70;;;;;;5029005;28;20429;-68
2023/02/11 05:50:17;;;;;;;8.70;3.53;;;8.00;86.70;;;;;;5029779;28;20392;-69
2023/02/11 05:52:43;;;;;;;8.80;3.53;;;8.00;86.70;;;;;;5027508;28;20577;-69
2023/02/11 05:55:08;;;;;;;7.00;3.00;;;8.00;86.70;;;;;;5029356;28;20033;-69
2023/02/11 05:57:34;;;;;;;8.20;3.50;;;7.90;86.80;;;;;;5027606;28;20056;-69
2023/02/11 05:59:59;;;;;;;10.18;3.85;;;7.90;86.80;;;;;;5029443;28;20357;-68
2023/02/11 06:02:25;;;;;;;7.20;3.20;;;7.90;86.90;;;;;;5027960;28;20590;-68
2023/02/11 06:04:51;;;;;;;6.97;2.85;;;7.90;86.90;;;;;;5028433;28;20452;-68
2023/02/11 06:07:18;;;;;;;8.90;3.85;;;7.90;86.80;;;;;;5028995;28;20113;-68
2023/02/11 06:09:44;;;;;;;12.95;3.88;;;7.90;86.90;;;;;;5028876;28;20021;-68
2023/02/11 06:12:09;;;;;;;6.68;3.60;;;7.90;87.00;;;;;;5027527;28;20032;-69
2023/02/11 06:14:35;;;;;;;7.43;3.28;;;7.90;87.00;;;;;;5028725;28;20032;-69
2023/02/11 06:17:00;;;;;;;6.13;2.83;;;8.00;87.00;;;;;;5029245;28;20021;-68
2023/02/11 06:19:26;;;;;;;9.25;3.83;;;8.00;86.80;;;;;;5029172;28;20099;-69
2023/02/11 06:21:51;;;;;;;7.70;3.78;;;8.00;86.80;;;;;;5029506;28;20057;-69
2023/02/11 06:24:17;;;;;;;8.63;3.50;;;8.00;86.90;;;;;;5028823;28;20030;-69
2023/02/11 06:26:42;;;;;;;6.93;3.45;;;8.00;86.70;;;;;;5029203;28;20029;-68
2023/02/11 06:29:08;;;;;;;3.67;2.13;;;8.00;86.70;;;;;;5031445;28;20033;-69
2023/02/11 06:31:36;;;;;;;14.75;5.95;;;8.00;86.70;;;;;;5033508;28;20029;-69
2023/02/11 06:34:01;;;;;;;7.20;3.85;;;8.00;86.70;;;;;;5033137;28;20041;-69
2023/02/11 06:36:27;;;;;;;8.05;3.50;;;8.00;86.90;;;;;;5030638;28;20037;-68
2023/02/11 06:38:52;;;;;;;8.77;3.67;;;8.00;86.90;;;;;;5032718;28;20029;-69
2023/02/11 06:41:19;;;;;;;19.88;6.60;;;8.00;86.90;;;;;;5033083;28;20100;-68
2023/02/11 06:43:45;;;;;;;6.40;3.03;;;8.00;86.80;;;;;;5033359;28;20117;-68
2023/02/11 06:46:11;;;;;;;8.50;2.88;;;8.00;86.80;;;;;;5033427;28;20679;-68
2023/02/11 06:48:36;;;;;;;5.32;2.60;;;8.00;86.90;;;;;;5031493;28;20037;-68
2023/02/11 06:51:04;;;;;;;8.75;4.10;;;8.00;86.80;;;;;;5033143;28;20380;-68
2023/02/11 06:53:30;;;;;;;8.07;3.70;;;8.00;86.80;;;;;;5032720;28;20087;-68
2023/02/11 06:55:56;;;;;;;6.63;3.50;;;7.90;86.90;;;;;;5032784;28;20659;-67
2023/02/11 06:58:21;;;;;;;13.88;4.10;;;8.00;87.10;;;;;;5032372;28;20029;-68
2023/02/11 07:00:47;;;;;;;8.52;3.78;;;8.00;87.10;;;;;;5027629;28;20503;-68
2023/02/11 07:03:12;;;;;;;6.82;3.17;;;7.90;87.00;;;;;;5032589;28;20506;-68
2023/02/11 07:05:41;;;;;;;10.90;3.80;;;8.00;87.00;;;;;;5032683;28;20033;-68
2023/02/11 07:08:07;;;;;;;14.07;4.03;;;8.00;87.00;;;;;;5032305;28;20029;-68
2023/02/11 07:10:33;;;;;;;6.03;3.20;;;8.00;86.90;;;;;;5028382;28;20022;-68
2023/02/11 07:12:58;;;;;;;5.22;2.33;;;8.00;87.00;;;;;;5019019;28;20100;-69
2023/02/11 07:15:24;;;;;;;7.30;3.70;;;8.00;87.00;;;;;;5032638;28;20133;-67
2023/02/11 07:17:49;;;;;;;9.35;4.35;;;7.90;87.10;;;;;;5030996;28;20057;-68
2023/02/11 07:20:15;;;;;;;12.38;4.45;;;7.90;87.10;;;;;;5031080;28;20029;-68
2023/02/11 07:22:41;;;;;;;15.57;5.72;;;8.00;87.20;;;;;;5021382;28;20068;-68
2023/02/11 07:25:07;;;;;;;9.27;3.67;;;8.00;87.20;;;;;;5031978;28;20025;-67
2023/02/11 07:27:32;;;;;;;8.57;3.45;;;8.00;87.20;;;;;;5030567;28;20392;-68
2023/02/11 07:29:58;;;;;;;8.18;3.80;;;8.00;87.00;;;;;;5029461;28;20029;-68
2023/02/11 07:32:23;;;;;;;7.20;3.03;;;8.00;87.00;;;;;;5031901;28;20065;-68
2023/02/11 07:34:49;;;;;;;7.35;3.50;;;8.00;87.00;;;;;;5028328;28;20030;-67
2023/02/11 07:37:14;;;;;;;8.25;3.17;;;8.00;87.10;;;;;;5030753;28;20037;-68
2023/02/11 07:39:40;;;;;;;7.50;3.63;;;8.00;87.10;;;;;;5028334;28;20021;-68
2023/02/11 07:42:05;;;;;;;7.13;3.30;;;8.00;87.20;;;;;;5026391;28;20040;-68
2023/02/11 07:44:32;;;;;;;10.65;3.75;;;8.00;87.20;;;;;;5030694;28;20103;-68
2023/02/11 07:46:58;;;;;;;13.27;4.72;;;8.10;87.30;;;;;;5030259;28;20064;-67
2023/02/11 07:49:24;;;;;;;8.23;3.63;;;8.10;87.20;;;;;;5028488;28;20029;-68
2023/02/11 07:51:50;;;;;;;8.00;3.40;;;8.10;87.20;;;;;;5029930;28;20051;-67
2023/02/11 07:54:16;;;;;;;9.88;4.18;;;8.10;87.10;;;;;;5029148;28;20026;-68
2023/02/11 07:56:42;;;;;;;9.52;4.20;;;8.20;87.20;;;;;;5026235;28;20029;-69
2023/02/11 07:59:08;;;;;;;9.60;3.72;;;8.10;87.30;;;;;;5026499;28;20034;-69
2023/02/11 08:01:33;;;;;;;12.27;3.97;;;8.20;87.30;;;;;;5031092;28;20092;-69
2023/02/11 08:04:00;;;;;;;12.75;5.60;;;8.20;87.30;;;;;;5028958;28;20087;-69
2023/02/11 08:06:32;;;;;;;10.80;4.43;;;8.20;87.40;;;;;;5027637;28;20112;-69
2023/02/11 08:09:04;;;;;;;11.48;3.80;;;8.20;87.30;;;;;;5029064;28;20025;-68
2023/02/11 08:11:29;;;;;;;13.52;4.78;;;8.20;87.30;;;;;;5023881;28;20498;-68
2023/02/11 08:13:56;;;;;;;11.27;4.25;;;8.20;87.40;;;;;;5027841;28;20104;-69
2023/02/11 08:16:21;;;;;;;10.05;3.70;;;8.20;87.40;;;;;;5026136;28;20376;-69
2023/02/11 08:18:48;;;;;;;9.30;3.97;;;8.30;87.40;;;;;;5027986;28;20021;-69
2023/02/11 08:21:13;;;;;;;7.32;2.97;;;8.30;87.30;;;;;;5030170;28;20109;-67
2023/02/11 08:23:40;;;;;;;10.60;3.55;;;8.30;87.30;;;;;;5029301;28;20474;-69
2023/02/11 08:26:10;;;;;;;9.82;4.15;;;8.40;87.20;;;;;;5028403;28;20063;-69
2023/02/11 08:28:37;;;;;;;10.65;4.30;;;8.40;87.20;;;;;;5028224;28;21612;-69
2023/02/11 08:31:07;;;;;;;8.43;3.05;;;8.40;87.20;;;;;;5028329;28;20090;-68
2023/02/11 08:33:33;;;;;;;7.60;3.58;;;8.40;87.30;;;;;;5026854;28;20078;-69
2023/02/11 08:35:59;;;;;;;19.27;6.85;;;8.40;87.40;;;;;;5028439;28;20391;-70
2023/02/11 08:38:25;;;;;;;10.10;4.38;;;8.40;87.50;;;;;;5030633;28;20018;-68
2023/02/11 08:40:51;;;;;;;13.50;4.90;;;8.40;87.60;;;;;;5028845;28;20029;-68
2023/02/11 08:43:16;;;;;;;10.32;4.40;;;8.50;87.60;;;;;;5028923;28;20029;-69
2023/02/11 08:45:42;;;;;;;8.35;3.92;;;8.50;87.50;;;;;;5028026;28;20053;-68
2023/02/11 08:48:08;;;;;;;11.55;4.68;;;8.60;87.40;;;;;;5027007;28;20038;-69
2023/02/11 08:50:37;;;;;;;11.82;4.32;;;8.60;87.30;;;;;;5028394;28;20032;-68
2023/02/11 08:53:03;;;;;;;20.55;7.30;;;8.60;87.30;;;;;;5029309;28;20036;-70
2023/02/11 08:55:28;;;;;;;14.48;6.43;;;8.60;87.50;;;;;;5026822;28;20038;-70
2023/02/11 08:57:54;;;;;;;11.57;4.28;;;8.60;87.60;;;;;;5026594;28;20052;-69
2023/02/11 09:00:20;;;;;;;9.05;4.00;;;8.60;87.60;;;;;;5026934;28;20071;-68
2023/02/11 09:02:49;;;;;;;12.20;4.65;;;8.60;87.50;;;;;;5026782;28;20399;-68
2023/02/11 09:05:15;;;;;;;11.55;4.75;;;8.70;87.40;;;;;;5026595;28;20431;-69
2023/02/11 09:07:40;;;;;;;8.63;4.07;;;8.70;87.20;;;;;;5028218;28;20037;-68
2023/02/11 09:10:07;;;;;;;14.98;6.03;;;8.80;87.00;;;;;;5027255;28;20463;-68
2023/02/11 09:12:32;;;;;;;13.75;6.00;;;8.80;87.00;;;;;;5027816;28;20530;-68
2023/02/11 09:14:58;;;;;;;11.98;4.68;;;8.80;87.00;;;;;;5026542;28;20025;-67
2023/02/11 09:17:23;;;;;;;9.88;4.13;;;8.80;86.90;;;;;;5027189;28;20033;-69
2023/02/11 09:19:49;;;;;;;8.95;4.20;;;8.90;87.00;;;;;;5027513;28;20496;-68
2023/02/11 09:22:15;;;;;;;12.60;4.75;;;8.80;86.90;;;;;;5028906;28;20033;-68
2023/02/11 09:24:40;;;;;;;8.95;4.13;;;8.90;87.00;;;;;;5025343;28;20025;-68
2023/02/11 09:27:06;;;;;;;8.40;3.70;;;9.00;86.90;;;;;;5025469;28;20029;-69
2023/02/11 09:29:31;;;;;;;8.98;4.00;;;9.00;87.30;;;;;;5026771;28;20030;-69
2023/02/11 09:31:57;;;;;;;9.88;4.38;;;9.10;86.60;;;;;;5026213;28;20029;-68
2023/02/11 09:34:22;;;;;;;8.38;3.28;;;9.10;86.70;;;;;;5026655;28;20029;-70
2023/02/11 09:36:48;;;;;;;9.02;4.82;;;9.10;86.70;;;;;;5026204;28;20380;-69
2023/02/11 09:39:16;;;;;;;9.07;3.72;;;9.20;86.60;;;;;;5027862;28;20032;-68
2023/02/11 09:42:07;;;;;;;12.20;4.68;;;9.20;86.50;;;;;;5026944;28;20029;-68
2023/02/11 09:44:35;;;;;;;8.38;3.78;;;9.30;86.40;;;;;;5023358;28;20036;-69
2023/02/11 09:47:29;;;;;;;9.65;3.90;;;9.30;86.40;;;;;;5024391;28;20053;-68
2023/02/11 09:50:11;;;;;;;11.65;4.30;;;9.30;86.50;;;;;;5024342;28;20029;-68
2023/02/11 09:52:50;;;;;;;11.95;3.72;;;9.40;86.50;;;;;;5023534;28;20040;-68
2023/02/11 09:55:35;;;;;;;7.65;3.38;;;9.40;86.40;;;;;;5023560;28;20755;-68
2023/02/11 09:58:03;;;;;;;7.60;3.53;;;9.40;86.40;;;;;;5025652;28;20037;-68
2023/02/11 10:00:51;;;;;;;8.70;3.63;;;9.50;86.30;;;;;;5025535;28;20068;-69
2023/02/11 10:03:37;;;;;;;9.27;3.95;;;9.50;86.20;;;;;;5026887;28;20033;-69
2023/02/11 10:06:14;;;;;;;7.97;3.60;;;9.60;86.10;;;;;;5021397;28;20108;-68
2023/02/11 10:09:05;;;;;;;7.93;3.35;;;9.60;86.00;;;;;;5024650;28;20132;-69
2023/02/11 10:12:01;;;;;;;4.90;2.83;;;9.60;86.00;;;;;;5026111;28;20132;-69
2023/02/11 10:15:04;;;;;;;10.68;3.70;;;9.70;85.90;;;;;;5026613;28;20432;-69
2023/02/11 10:18:08;;;;;;;9.55;3.90;;;9.70;85.90;;;;;;5025328;28;20101;-68
2023/02/11 10:20:48;;;;;;;12.93;4.53;;;9.80;85.90;;;;;;5005447;28;20125;-67
2023/02/11 10:23:24;;;;;;;10.85;4.88;;;9.70;85.90;;;;;;5025323;28;20022;-68
2023/02/11 10:25:53;;;;;;;9.10;3.60;;;9.80;85.90;;;;;;5021952;28;20028;-68
2023/02/11 10:28:23;;;;;;;8.70;3.75;;;9.80;85.90;;;;;;5024199;28;20065;-68
2023/02/11 10:31:00;;;;;;;10.73;4.63;;;9.90;85.80;;;;;;5023904;28;20065;-68
2023/02/11 10:34:06;;;;;;;10.93;4.05;;;9.90;85.70;;;;;;5025633;28;20144;-68
2023/02/11 10:36:37;;;;;;;10.05;4.22;;;10.00;85.80;;;;;;5021282;28;20108;-69
2023/02/11 10:39:18;;;;;;;13.98;5.85;;;10.00;85.60;;;;;;5022235;28;20522;-69
2023/02/11 10:42:00;;;;;;;8.32;4.40;;;10.10;85.60;;;;;;5026965;28;20025;-69
2023/02/11 10:44:32;;;;;;;6.97;3.50;;;10.10;85.60;;;;;;5028091;28;20018;-69
2023/02/11 10:47:01;;;;;;;14.38;4.13;;;10.20;85.50;;;;;;5022618;28;20488;-69
2023/02/11 10:49:37;;;;;;;13.38;5.25;;;10.20;85.30;;;;;;5022963;28;20391;-68
2023/02/11 10:52:27;;;;;;;8.82;3.75;;;10.30;85.20;;;;;;5027183;28;20028;-68
2023/02/11 10:54:59;;;;;;;8.60;3.42;;;10.30;85.20;;;;;;5025515;28;20874;-68
2023/02/11 10:57:27;;;;;;;;;;;10.40;85.20;;;;;;5025643;28;20017;-69
2023/02/11 11:00:05;;;;;;;11.82;4.25;;;10.40;85.10;;;;;;5026976;28;19975;-69
2023/02/11 11:02:34;;;;;;;7.63;3.90;;;10.50;85.00;;;;;;5027463;28;20079;-69
2023/02/11 11:05:16;;;;;;;12.35;4.20;;;10.60;84.90;;;;;;5026238;28;20028;-69
2023/02/11 11:07:53;;;;;;;8.45;3.47;;;10.60;84.70;;;;;;5026986;28;20025;-69
2023/02/11 11:10:42;;;;;;;6.57;3.22;;;10.70;84.60;;;;;;5027133;28;20033;-69
2023/02/11 11:13:33;;;;;;;8.45;3.50;;;10.80;84.50;;;;;;5027463;28;20127;-68
2023/02/11 11:16:11;;;;;;;9.47;4.43;;;10.90;84.40;;;;;;5022778;28;20025;-69
2023/02/11 11:18:38;;;;;;;8.57;3.30;;;10.90;84.40;;;;;;5029293;28;20021;-69
2023/02/11 11:21:25;;;;;;;7.47;3.60;;;10.90;84.40;;;;;;5030840;28;20384;-69
2023/02/11 11:23:57;;;;;;;6.38;3.03;;;11.00;84.20;;;;;;5030147;28;20587;-69
2023/02/11 11:26:24;;;;;;;;;;;11.00;84.10;;;;;;5027239;28;20037;-69
2023/02/11 11:29:00;;;;;;;8.32;3.42;;;11.00;84.10;;;;;;5030994;28;20482;-69
2023/02/11 11:31:25;;;;;;;8.90;3.78;;;11.00;84.20;;;;;;5030775;28;20491;-68
2023/02/11 11:33:54;;;;;;;7.32;3.30;;;11.00;84.20;;;;;;5030815;28;20076;-68
2023/02/11 11:36:23;;;;;;;5.93;3.25;;;11.00;84.10;;;;;;5040038;28;20400;-70
2023/02/11 11:38:54;;;;;;;7.00;3.20;;;11.10;84.10;;;;;;5030329;28;20476;-67
2023/02/11 11:41:32;;;;;;;7.95;3.53;;;11.10;84.00;;;;;;5027046;28;20040;-68
2023/02/11 11:44:13;;;;;;;6.90;3.65;;;11.10;84.00;;;;;;5028087;28;20480;-68
2023/02/11 11:46:42;;;;;;;8.13;3.20;;;11.20;84.10;;;;;;5021601;28;20112;-68
2023/02/11 11:49:24;;;;;;;6.18;2.67;;;11.20;84.10;;;;;;5028304;28;20017;-67
2023/02/11 11:52:28;;;;;;;6.97;3.60;;;11.30;84.00;;;;;;5026924;28;20458;-68
2023/02/11 11:55:19;;;;;;;7.22;3.10;;;11.40;83.90;;;;;;5024069;28;20034;-67
2023/02/11 11:57:45;;;;;;;5.60;2.63;;;11.50;83.60;;;;;;5029657;28;20455;-67
2023/02/11 12:00:20;;;;;;;9.52;4.18;;;11.60;83.40;;;;;;5027536;28;20049;-68
2023/02/11 12:03:08;;;;;;;8.85;4.28;;;11.60;83.00;;;;;;5028887;28;20025;-68
2023/02/11 12:06:05;;;;;;;7.43;3.80;;;11.60;83.10;;;;;;5026380;28;20037;-68
2023/02/11 12:08:57;;;;;;;6.97;3.50;;;11.80;83.00;;;;;;5029706;28;20037;-68
2023/02/11 12:11:27;;;;;;;7.75;4.20;;;11.80;82.90;;;;;;5029550;28;20033;-67
2023/02/11 12:14:05;;;;;;;10.80;4.25;;;11.90;82.50;;;;;;5028908;28;20034;-68
2023/02/11 12:16:54;;;;;;;6.45;3.40;;;11.80;82.40;;;;;;5023101;28;20025;-68
2023/02/11 12:19:46;;;;;;;7.85;4.25;;;11.80;82.60;;;;;;5026333;28;20483;-68
2023/02/11 12:22:31;;;;;;;7.53;4.10;;;11.70;82.70;;;;;;5034079;28;20045;-68
2023/02/11 12:25:25;;;;;;;6.47;3.25;;;11.70;82.90;;;;;;5025242;28;20029;-67
2023/02/11 12:28:08;;;;;;;6.40;3.25;;;11.90;82.70;;;;;;5026261;28;20056;-68
2023/02/11 12:30:40;;;;;;;6.78;3.22;;;11.80;82.50;;;;;;5029495;28;20022;-68
2023/02/11 12:33:17;;;;;;;6.40;2.60;;;11.70;82.70;;;;;;5027369;28;20029;-68
2023/02/11 12:36:06;;;;;;;7.22;3.60;;;11.80;82.90;;;;;;5024587;28;20029;-67
2023/02/11 12:39:10;;;;;;;5.20;2.88;;;11.80;82.70;;;;;;5028791;28;20022;-67
2023/02/11 12:45:02;;;;;;;6.78;3.38;;;12.00;82.40;;;;;;5027080;28;20064;-68
2023/02/11 12:48:05;;;;;;;6.43;3.53;;;12.00;82.20;;;;;;5026226;28;20423;-68
2023/02/11 12:51:08;;;;;;;6.38;3.08;;;12.00;82.20;;;;;;5026027;28;20491;-68
2023/02/11 12:53:52;;;;;;;5.65;2.58;;;12.00;82.10;;;;;;5028136;28;20033;-68
2023/02/11 12:56:30;;;;;;;4.90;2.80;;;12.10;82.00;;;;;;5023799;28;20476;-68
2023/02/11 12:58:59;;;;;;;4.55;2.20;;;12.10;82.00;;;;;;5026600;28;20022;-68
2023/02/11 13:01:30;;;;;;;3.83;2.30;;;12.20;82.00;;;;;;5028780;28;20032;-68
2023/02/11 13:04:21;;;;;;;3.67;1.90;;;12.20;81.90;;;;;;5028315;28;20024;-68
2023/02/11 13:07:05;;;;;;;5.43;1.95;;;12.30;81.80;;;;;;5021152;28;20407;-68
2023/02/11 13:09:53;;;;;;;6.28;2.53;;;12.30;81.70;;;;;;5026711;28;20579;-68
2023/02/11 13:15:09;;;;;;;5.13;1.70;;;12.40;81.60;;;;;;5026154;28;20689;-67
2023/02/11 13:17:45;;;;;;;3.23;1.90;;;12.40;81.50;;;;;;5027297;28;20048;-68
2023/02/11 13:20:35;;;;;;;5.20;2.35;;;12.40;81.40;;;;;;5027047;28;20048;-68
2023/02/11 13:23:30;;;;;;;5.72;2.50;;;12.40;81.40;;;;;;5027450;28;20427;-68
2023/02/11 13:26:01;;;;;;;4.05;2.33;;;12.40;81.40;;;;;;5004820;28;20129;-68
2023/02/11 13:29:04;;;;;;;3.95;2.17;;;12.40;81.50;;;;;;5027110;28;20066;-68